Observation data for Lamesa on 01/19/2019      Previous  Date  Next       Current Mesonet Observations  Soil Data  Daily Summary Page  Observations in Plain Language
KLES 190600Z 34020G28KT 03/M01 A3006 RMK A01 T00301009  RH  076%=      5-min Rain = 0
KLES 190605Z 33023G35KT 03/M01 A3007 RMK A01 T00301010  RH  076%=      5-min Rain = 0
KLES 190610Z 34020G28KT 03/M01 A3007 RMK A01 T00301009  RH  076%=      5-min Rain = 0
KLES 190615Z 33018G26KT 03/M01 A3007 RMK A01 T00291007  RH  078%=      5-min Rain = 0
KLES 190620Z 33018G26KT 03/M01 A3008 RMK A01 T00291006  RH  079%=      5-min Rain = 0
KLES 190625Z 33020G32KT 03/M01 A3008 RMK A01 T00281006  RH  079%=      5-min Rain = 0
KLES 190630Z 34017G28KT 03/M01 A3008 RMK A01 T00281005  RH  079%=      5-min Rain = 0
KLES 190635Z 34019G30KT 03/M01 A3008 RMK A01 T00281005  RH  080%=      5-min Rain = 0
KLES 190640Z 34019G28KT 03/M01 A3009 RMK A01 T00291005  RH  079%=      5-min Rain = 0
KLES 190645Z 34021G31KT 03/M00 A3009 RMK A01 T00291004  RH  080%=      5-min Rain = 0
KLES 190650Z 33019G25KT 03/M00 A301 RMK A01 T00291004  RH  080%=      5-min Rain = 0
KLES 190655Z 33018G26KT 03/M00 A301 RMK A01 T00301003  RH  080%=      5-min Rain = 0
KLES 190700Z 33019G27KT 03/M00 A301 RMK A01 T00311003  RH  080%=      5-min Rain = 0
KLES 190705Z 33017G28KT 03/M00 A301 RMK A01 T00311002  RH  080%=      5-min Rain = 0
KLES 190710Z 34018G27KT 03/M00 A3011 RMK A01 T00321002  RH  079%=      5-min Rain = 0
KLES 190715Z 33018G26KT 03/M00 A3011 RMK A01 T00331001  RH  079%=      5-min Rain = 0
KLES 190720Z 33016G25KT 03/M00 A3011 RMK A01 T00331001  RH  080%=      5-min Rain = 0
KLES 190725Z 33016G24KT 03/M00 A3012 RMK A01 T00321001  RH  080%=      5-min Rain = 0
KLES 190730Z 34016G22KT 03/M00 A3012 RMK A01 T00321002  RH  079%=      5-min Rain = 0
KLES 190735Z 33015G25KT 03/M00 A3012 RMK A01 T00321002  RH  079%=      5-min Rain = 0
KLES 190740Z 33013G21KT 03/M00 A3012 RMK A01 T00301003  RH  080%=      5-min Rain = 0
KLES 190745Z 33016G25KT 03/M01 A3012 RMK A01 T00301005  RH  079%=      5-min Rain = 0
KLES 190750Z 33016G25KT 03/M01 A3012 RMK A01 T00291009  RH  077%=      5-min Rain = 0
KLES 190755Z 33019G28KT 03/M01 A3012 RMK A01 T00281013  RH  075%=      5-min Rain = 0
KLES 190800Z 33019G29KT 03/M01 A3013 RMK A01 T00271014  RH  075%=      5-min Rain = 0
KLES 190805Z 33020G29KT 03/M02 A3013 RMK A01 T00271015  RH  074%=      5-min Rain = 0
KLES 190810Z 33020G26KT 03/M02 A3013 RMK A01 T00271016  RH  074%=      5-min Rain = 0
KLES 190815Z 33018G26KT 03/M02 A3014 RMK A01 T00261016  RH  075%=      5-min Rain = 0
KLES 190820Z 33015G21KT 03/M02 A3014 RMK A01 T00251015  RH  076%=      5-min Rain = 0
KLES 190825Z 33015G24KT 03/M01 A3014 RMK A01 T00261014  RH  076%=      5-min Rain = 0
KLES 190830Z 33014G20KT 03/M01 A3014 RMK A01 T00261014  RH  076%=      5-min Rain = 0
KLES 190835Z 33015G22KT 03/M01 A3014 RMK A01 T00251014  RH  076%=      5-min Rain = 0
KLES 190840Z 33017G25KT 02/M02 A3014 RMK A01 T00241015  RH  076%=      5-min Rain = 0
KLES 190845Z 33020G30KT 02/M02 A3015 RMK A01 T00231018  RH  075%=      5-min Rain = 0
KLES 190850Z 34018G26KT 02/M02 A3015 RMK A01 T00231020  RH  074%=      5-min Rain = 0
KLES 190855Z 34018G27KT 02/M02 A3015 RMK A01 T00221021  RH  073%=      5-min Rain = 0
KLES 190900Z 34016G24KT 02/M02 A3015 RMK A01 T00211021  RH  074%=      5-min Rain = 0
KLES 190905Z 33014G21KT 02/M02 A3015 RMK A01 T00201021  RH  075%=      5-min Rain = 0
KLES 190910Z 33014G19KT 02/M02 A3015 RMK A01 T00191020  RH  076%=      5-min Rain = 0
KLES 190915Z 33013G19KT 02/M02 A3015 RMK A01 T00181020  RH  077%=      5-min Rain = 0
KLES 190920Z 33016G25KT 02/M02 A3015 RMK A01 T00181020  RH  076%=      5-min Rain = 0
KLES 190925Z 33017G24KT 02/M02 A3015 RMK A01 T00191022  RH  075%=      5-min Rain = 0
KLES 190930Z 33017G24KT 02/M02 A3016 RMK A01 T00191022  RH  075%=      5-min Rain = 0
KLES 190935Z 33016G23KT 02/M02 A3016 RMK A01 T00191022  RH  075%=      5-min Rain = 0
KLES 190940Z 33016G23KT 02/M02 A3017 RMK A01 T00181023  RH  075%=      5-min Rain = 0
KLES 190945Z 33015G21KT 02/M02 A3017 RMK A01 T00181023  RH  075%=      5-min Rain = 0
KLES 190950Z 33014G20KT 02/M02 A3018 RMK A01 T00171024  RH  075%=      5-min Rain = 0
KLES 190955Z 33014G20KT 02/M02 A3018 RMK A01 T00171024  RH  074%=      5-min Rain = 0
KLES 191000Z 33015G20KT 02/M03 A3018 RMK A01 T00171025  RH  074%=      5-min Rain = 0
KLES 191005Z 33013G18KT 02/M03 A3018 RMK A01 T00171025  RH  075%=      5-min Rain = 0
KLES 191010Z 33014G21KT 02/M03 A3018 RMK A01 T00161025  RH  075%=      5-min Rain = 0
KLES 191015Z 33015G23KT 02/M03 A3018 RMK A01 T00161026  RH  075%=      5-min Rain = 0
KLES 191020Z 33016G22KT 02/M03 A3019 RMK A01 T00161026  RH  074%=      5-min Rain = 0
KLES 191025Z 33015G25KT 02/M03 A3019 RMK A01 T00171027  RH  073%=      5-min Rain = 0
KLES 191030Z 33015G23KT 02/M03 A3019 RMK A01 T00171028  RH  073%=      5-min Rain = 0
KLES 191035Z 33013G21KT 02/M03 A3019 RMK A01 T00171028  RH  073%=      5-min Rain = 0
KLES 191040Z 33012G19KT 02/M03 A302 RMK A01 T00161028  RH  073%=      5-min Rain = 0
KLES 191045Z 33013G18KT 02/M03 A302 RMK A01 T00151028  RH  074%=      5-min Rain = 0
KLES 191050Z 33014G22KT 02/M03 A302 RMK A01 T00151027  RH  074%=      5-min Rain = 0
KLES 191055Z 34013G19KT 01/M03 A3021 RMK A01 T00141027  RH  074%=      5-min Rain = 0
KLES 191100Z 34015G22KT 02/M03 A3021 RMK A01 T00151027  RH  074%=      5-min Rain = 0
KLES 191105Z 34013G21KT 02/M03 A3021 RMK A01 T00151027  RH  074%=      5-min Rain = 0
KLES 191110Z 34013KT 01/M03 A3021 RMK A01 T00141027  RH  074%=      5-min Rain = 0
KLES 191115Z 34013KT 01/M03 A3021 RMK A01 T00141027  RH  075%=      5-min Rain = 0
KLES 191120Z 34012KT 01/M03 A3021 RMK A01 T00131027  RH  075%=      5-min Rain = 0
KLES 191125Z 34011KT 01/M03 A3021 RMK A01 T00131027  RH  075%=      5-min Rain = 0
KLES 191130Z 34009KT 01/M03 A3021 RMK A01 T00121027  RH  076%=      5-min Rain = 0
KLES 191135Z 33009KT 01/M03 A3022 RMK A01 T00111027  RH  076%=      5-min Rain = 0
KLES 191140Z 33010G15KT 01/M03 A3022 RMK A01 T00101027  RH  077%=      5-min Rain = 0
KLES 191145Z 34012G18KT 01/M03 A3021 RMK A01 T00111027  RH  076%=      5-min Rain = 0
KLES 191150Z 33012G19KT 01/M03 A3021 RMK A01 T00131027  RH  075%=      5-min Rain = 0
KLES 191155Z 34012G17KT 01/M03 A3022 RMK A01 T00131027  RH  075%=      5-min Rain = 0
KLES 191200Z 34012G19KT 01/M03 A3022 RMK A01 T00141027  RH  075%=      5-min Rain = 0
KLES 191205Z 34011KT 02/M03 A3022 RMK A01 T00151027  RH  074%=      5-min Rain = 0
KLES 191210Z 34013KT 02/M03 A3022 RMK A01 T00161027  RH  074%=      5-min Rain = 0
KLES 191215Z 34011KT 02/M03 A3022 RMK A01 T00161028  RH  073%=      5-min Rain = 0
KLES 191220Z 33011G16KT 02/M03 A3022 RMK A01 T00161028  RH  073%=      5-min Rain = 0
KLES 191225Z 33011KT 02/M03 A3022 RMK A01 T00171028  RH  073%=      5-min Rain = 0
KLES 191230Z 33010KT 02/M03 A3022 RMK A01 T00171028  RH  073%=      5-min Rain = 0
KLES 191235Z 33010KT 02/M03 A3022 RMK A01 T00171028  RH  073%=      5-min Rain = 0
KLES 191240Z 33010G15KT 02/M03 A3023 RMK A01 T00171028  RH  073%=      5-min Rain = 0
KLES 191245Z 33010KT 02/M03 A3023 RMK A01 T00171028  RH  073%=      5-min Rain = 0
KLES 191250Z 33010KT 02/M03 A3023 RMK A01 T00161028  RH  073%=      5-min Rain = 0
KLES 191255Z 33010KT 02/M03 A3023 RMK A01 T00151028  RH  074%=      5-min Rain = 0
KLES 191300Z 33010KT 01/M03 A3024 RMK A01 T00141028  RH  075%=      5-min Rain = 0
KLES 191305Z 33009KT 01/M03 A3024 RMK A01 T00121028  RH  075%=      5-min Rain = 0
KLES 191310Z 33009KT 01/M03 A3024 RMK A01 T00121027  RH  076%=      5-min Rain = 0
KLES 191315Z 33009G14KT 01/M03 A3025 RMK A01 T00111027  RH  076%=      5-min Rain = 0
KLES 191320Z 32009KT 01/M03 A3025 RMK A01 T00101027  RH  077%=      5-min Rain = 0
KLES 191325Z 32009KT 01/M03 A3025 RMK A01 T00091028  RH  077%=      5-min Rain = 0
KLES 191330Z 32009KT 01/M03 A3026 RMK A01 T00081028  RH  078%=      5-min Rain = 0
KLES 191335Z 32008KT 01/M03 A3026 RMK A01 T00071028  RH  078%=      5-min Rain = 0
KLES 191340Z 32009KT 01/M03 A3026 RMK A01 T00051029  RH  078%=      5-min Rain = 0
KLES 191345Z 32009KT 00/M03 A3026 RMK A01 T00041030  RH  079%=      5-min Rain = 0
KLES 191350Z 32009KT 00/M03 A3027 RMK A01 T00041030  RH  078%=      5-min Rain = 0
KLES 191355Z 32009KT 01/M03 A3027 RMK A01 T00061030  RH  078%=      5-min Rain = 0
KLES 191400Z 32008KT 01/M03 A3028 RMK A01 T00071030  RH  077%=      5-min Rain = 0
KLES 191405Z 32009KT 01/M03 A3028 RMK A01 T00081029  RH  077%=      5-min Rain = 0
KLES 191410Z 32008KT 01/M03 A3028 RMK A01 T00091029  RH  076%=      5-min Rain = 0
KLES 191415Z 32008KT 01/M03 A3028 RMK A01 T00111028  RH  076%=      5-min Rain = 0
KLES 191420Z 32009KT 01/M03 A3029 RMK A01 T00121028  RH  075%=      5-min Rain = 0
KLES 191425Z 32009KT 01/M03 A3029 RMK A01 T00141028  RH  074%=      5-min Rain = 0
KLES 191430Z 31009KT 02/M03 A3029 RMK A01 T00161027  RH  073%=      5-min Rain = 0
KLES 191435Z 31009KT 02/M03 A303 RMK A01 T00181027  RH  073%=      5-min Rain = 0
KLES 191440Z 31009KT 02/M03 A303 RMK A01 T00191027  RH  072%=      5-min Rain = 0
KLES 191445Z 31009KT 02/M03 A303 RMK A01 T00201026  RH  072%=      5-min Rain = 0
KLES 191450Z 31009KT 02/M03 A303 RMK A01 T00231025  RH  071%=      5-min Rain = 0
KLES 191455Z 30009KT 03/M02 A3031 RMK A01 T00251024  RH  070%=      5-min Rain = 0
KLES 191500Z 30010KT 03/M02 A3031 RMK A01 T00261024  RH  070%=      5-min Rain = 0
KLES 191505Z 31009KT 03/M02 A3031 RMK A01 T00281023  RH  070%=      5-min Rain = 0
KLES 191510Z 32010G15KT 03/M02 A3031 RMK A01 T00301023  RH  069%=      5-min Rain = 0
KLES 191515Z 31010G15KT 03/M02 A3032 RMK A01 T00321023  RH  068%=      5-min Rain = 0
KLES 191520Z 32010G17KT 04/M02 A3032 RMK A01 T00351022  RH  067%=      5-min Rain = 0
KLES 191525Z 32009G14KT 04/M02 A3033 RMK A01 T00381021  RH  066%=      5-min Rain = 0
KLES 191530Z 33008KT 04/M02 A3033 RMK A01 T00421018  RH  065%=      5-min Rain = 0
KLES 191535Z 33010G17KT 05/M02 A3033 RMK A01 T00461019  RH  063%=      5-min Rain = 0
KLES 191540Z 33012G17KT 05/M02 A3033 RMK A01 T00481020  RH  062%=      5-min Rain = 0
KLES 191545Z 33014G19KT 05/M02 A3033 RMK A01 T00511020  RH  060%=      5-min Rain = 0
KLES 191550Z 34014G21KT 06/M02 A3033 RMK A01 T00551022  RH  058%=      5-min Rain = 0
KLES 191555Z 34014G21KT 06/M02 A3033 RMK A01 T00571023  RH  057%=      5-min Rain = 0
KLES 191600Z 33014G21KT 06/M02 A3033 RMK A01 T00601024  RH  055%=      5-min Rain = 0
KLES 191605Z 34014G19KT 06/M02 A3033 RMK A01 T00611024  RH  055%=      5-min Rain = 0
KLES 191610Z 34015G22KT 06/M03 A3033 RMK A01 T00631025  RH  054%=      5-min Rain = 0
KLES 191615Z 35016G28KT 06/M03 A3034 RMK A01 T00641027  RH  052%=      5-min Rain = 0
KLES 191620Z 35018G28KT 07/M03 A3034 RMK A01 T00651028  RH  052%=      5-min Rain = 0
KLES 191625Z 35017G23KT 07/M03 A3034 RMK A01 T00661028  RH  052%=      5-min Rain = 0
KLES 191630Z 35015G21KT 07/M03 A3034 RMK A01 T00681027  RH  051%=      5-min Rain = 0
KLES 191635Z 35015G23KT 07/M03 A3034 RMK A01 T00711027  RH  050%=      5-min Rain = 0
KLES 191640Z 35014KT 07/M03 A3034 RMK A01 T00731028  RH  049%=      5-min Rain = 0
KLES 191645Z 34015G21KT 08/M03 A3034 RMK A01 T00751028  RH  048%=      5-min Rain = 0
KLES 191650Z 35016G23KT 08/M03 A3034 RMK A01 T00771028  RH  048%=      5-min Rain = 0
KLES 191655Z 35014G20KT 08/M03 A3035 RMK A01 T00771028  RH  048%=      5-min Rain = 0
KLES 191700Z 35015G21KT 08/M03 A3035 RMK A01 T00801029  RH  046%=      5-min Rain = 0
KLES 191705Z 34015G20KT 08/M03 A3035 RMK A01 T00811028  RH  046%=      5-min Rain = 0
KLES 191710Z 34014G21KT 08/M03 A3035 RMK A01 T00831028  RH  046%=      5-min Rain = 0
KLES 191715Z 34014G21KT 09/M03 A3035 RMK A01 T00851029  RH  045%=      5-min Rain = 0
KLES 191720Z 36015G21KT 09/M03 A3035 RMK A01 T00861031  RH  044%=      5-min Rain = 0
KLES 191725Z 00016G21KT 08/M03 A3035 RMK A01 T00841031  RH  044%=      5-min Rain = 0
KLES 191730Z 35015G20KT 09/M03 A3035 RMK A01 T00851031  RH  044%=      5-min Rain = 0
KLES 191735Z 34017G25KT 09/M03 A3035 RMK A01 T00871030  RH  044%=      5-min Rain = 0
KLES 191740Z 35015G21KT 09/M03 A3035 RMK A01 T00891031  RH  043%=      5-min Rain = 0
KLES 191745Z 36014G19KT 09/M03 A3035 RMK A01 T00901029  RH  043%=      5-min Rain = 0
KLES 191750Z 35013G20KT 09/M03 A3035 RMK A01 T00931028  RH  043%=      5-min Rain = 0
KLES 191755Z 35014G19KT 09/M03 A3035 RMK A01 T00921030  RH  043%=      5-min Rain = 0
KLES 191800Z 35013G20KT 09/M03 A3034 RMK A01 T00941028  RH  042%=      5-min Rain = 0
KLES 191805Z 35015G21KT 10/M03 A3034 RMK A01 T00961030  RH  041%=      5-min Rain = 0
KLES 191810Z 35016G22KT 10/M03 A3034 RMK A01 T00971028  RH  042%=      5-min Rain = 0
KLES 191815Z 35011G21KT 10/M03 A3034 RMK A01 T00991026  RH  042%=      5-min Rain = 0
KLES 191820Z 34013G21KT 10/M02 A3033 RMK A01 T01021024  RH  041%=      5-min Rain = 0
KLES 191825Z 33015G21KT 10/M03 A3033 RMK A01 T01031026  RH  041%=      5-min Rain = 0
KLES 191830Z 34013G19KT 10/M03 A3033 RMK A01 T01031025  RH  041%=      5-min Rain = 0
KLES 191835Z 34013G18KT 11/M03 A3033 RMK A01 T01051026  RH  040%=      5-min Rain = 0
KLES 191840Z 34014KT 11/M03 A3033 RMK A01 T01071027  RH  039%=      5-min Rain = 0
KLES 191845Z 34013G18KT 11/M03 A3033 RMK A01 T01081028  RH  039%=      5-min Rain = 0
KLES 191850Z 00014G21KT 11/M03 A3032 RMK A01 T01061029  RH  039%=      5-min Rain = 0
KLES 191855Z 34012G17KT 11/M03 A3032 RMK A01 T01071026  RH  040%=      5-min Rain = 0
KLES 191900Z 34013G19KT 11/M03 A3032 RMK A01 T01111026  RH  039%=      5-min Rain = 0
KLES 191905Z 35013G19KT 11/M03 A3032 RMK A01 T01121026  RH  038%=      5-min Rain = 0
KLES 191910Z 33012G19KT 11/M03 A3032 RMK A01 T01141025  RH  038%=      5-min Rain = 0
KLES 191915Z 33014G19KT 11/M03 A3032 RMK A01 T01141026  RH  038%=      5-min Rain = 0
KLES 191920Z 34014G19KT 11/M03 A3032 RMK A01 T01131026  RH  038%=      5-min Rain = 0
KLES 191925Z 34013KT 11/M02 A3031 RMK A01 T01131024  RH  038%=      5-min Rain = 0
KLES 191930Z 33012G18KT 12/M02 A3031 RMK A01 T01161024  RH  038%=      5-min Rain = 0
KLES 191935Z 33011G17KT 12/M03 A3031 RMK A01 T01161025  RH  038%=      5-min Rain = 0
KLES 191940Z 33013G18KT 12/M02 A303 RMK A01 T01171023  RH  038%=      5-min Rain = 0
KLES 191945Z 33012KT 12/M02 A303 RMK A01 T01171024  RH  037%=      5-min Rain = 0
KLES 191950Z 31012G20KT 12/M03 A303 RMK A01 T01151027  RH  037%=      5-min Rain = 0
KLES 191955Z 34010G15KT 12/M02 A303 RMK A01 T01161021  RH  038%=      5-min Rain = 0
KLES 192000Z 35009G14KT 12/M03 A303 RMK A01 T01171025  RH  037%=      5-min Rain = 0
KLES 192005Z 33011G18KT 12/M02 A3029 RMK A01 T01191021  RH  038%=      5-min Rain = 0
KLES 192010Z 33013G18KT 12/M02 A3029 RMK A01 T01231022  RH  037%=      5-min Rain = 0
KLES 192015Z 32011KT 12/M02 A3029 RMK A01 T01221024  RH  036%=      5-min Rain = 0
KLES 192020Z 33008G16KT 12/M02 A3029 RMK A01 T01221020  RH  037%=      5-min Rain = 0
KLES 192025Z 33013G20KT 12/M02 A3029 RMK A01 T01241023  RH  036%=      5-min Rain = 0
KLES 192030Z 34010G18KT 12/M02 A3028 RMK A01 T01241022  RH  036%=      5-min Rain = 0
KLES 192035Z 34013G18KT 12/M03 A3028 RMK A01 T01241025  RH  036%=      5-min Rain = 0
KLES 192040Z 34013G18KT 12/M03 A3028 RMK A01 T01231026  RH  036%=      5-min Rain = 0
KLES 192045Z 33012G17KT 12/M02 A3027 RMK A01 T01241023  RH  036%=      5-min Rain = 0
KLES 192050Z 34012G18KT 13/M03 A3027 RMK A01 T01261025  RH  035%=      5-min Rain = 0
KLES 192055Z 33013G18KT 13/M03 A3027 RMK A01 T01261027  RH  035%=      5-min Rain = 0
KLES 192100Z 33013G19KT 13/M03 A3027 RMK A01 T01251026  RH  035%=      5-min Rain = 0
KLES 192105Z 32009G14KT 13/M03 A3027 RMK A01 T01251027  RH  035%=      5-min Rain = 0
KLES 192110Z 33011G19KT 12/M03 A3026 RMK A01 T01231026  RH  036%=      5-min Rain = 0
KLES 192115Z 33011KT 13/M03 A3026 RMK A01 T01251025  RH  035%=      5-min Rain = 0
KLES 192120Z 33012G19KT 13/M03 A3026 RMK A01 T01271026  RH  035%=      5-min Rain = 0
KLES 192125Z 33009KT 13/M03 A3026 RMK A01 T01251028  RH  035%=      5-min Rain = 0
KLES 192130Z 33010G15KT 13/M03 A3026 RMK A01 T01271025  RH  035%=      5-min Rain = 0
KLES 192135Z 34010KT 13/M03 A3026 RMK A01 T01281025  RH  035%=      5-min Rain = 0
KLES 192140Z 34010G17KT 13/M03 A3026 RMK A01 T01271027  RH  034%=      5-min Rain = 0
KLES 192145Z 33012G17KT 13/M03 A3026 RMK A01 T01291027  RH  034%=      5-min Rain = 0
KLES 192150Z 32009KT 13/M03 A3026 RMK A01 T01291028  RH  034%=      5-min Rain = 0
KLES 192155Z 33009G15KT 13/M03 A3026 RMK A01 T01301029  RH  033%=      5-min Rain = 0
KLES 192200Z 34010KT 13/M03 A3026 RMK A01 T01311028  RH  033%=      5-min Rain = 0
KLES 192205Z 34012KT 13/M03 A3026 RMK A01 T01291031  RH  033%=      5-min Rain = 0
KLES 192210Z 34009KT 13/M03 A3026 RMK A01 T01301029  RH  033%=      5-min Rain = 0
KLES 192215Z 33009KT 13/M03 A3026 RMK A01 T01311031  RH  032%=      5-min Rain = 0
KLES 192220Z 35008KT 13/M03 A3026 RMK A01 T01301033  RH  032%=      5-min Rain = 0
KLES 192225Z 35011G17KT 13/M03 A3026 RMK A01 T01281033  RH  033%=      5-min Rain = 0
KLES 192230Z 35008KT 13/M03 A3026 RMK A01 T01271034  RH  033%=      5-min Rain = 0
KLES 192235Z 33008KT 13/M03 A3026 RMK A01 T01281032  RH  033%=      5-min Rain = 0
KLES 192240Z 34009KT 13/M04 A3026 RMK A01 T01291036  RH  032%=      5-min Rain = 0
KLES 192245Z 33010KT 13/M04 A3026 RMK A01 T01291036  RH  031%=      5-min Rain = 0
KLES 192250Z 32008KT 13/M04 A3026 RMK A01 T01291036  RH  032%=      5-min Rain = 0
KLES 192255Z 33008KT 13/M04 A3026 RMK A01 T01281035  RH  032%=      5-min Rain = 0
KLES 192300Z 34008KT 13/M03 A3026 RMK A01 T01271034  RH  033%=      5-min Rain = 0
KLES 192305Z 35006KT 13/M03 A3026 RMK A01 T01261033  RH  033%=      5-min Rain = 0
KLES 192310Z 01006KT 12/M03 A3026 RMK A01 T01241033  RH  034%=      5-min Rain = 0
KLES 192315Z 35007KT 12/M04 A3026 RMK A01 T01221037  RH  033%=      5-min Rain = 0
KLES 192320Z 36008KT 12/M04 A3026 RMK A01 T01221041  RH  032%=      5-min Rain = 0
KLES 192325Z 36005KT 12/M04 A3026 RMK A01 T01221040  RH  032%=      5-min Rain = 0
KLES 192330Z 00007KT 12/M04 A3026 RMK A01 T01211037  RH  033%=      5-min Rain = 0
KLES 192335Z 35007KT 12/M04 A3026 RMK A01 T01191040  RH  033%=      5-min Rain = 0
KLES 192340Z 35006KT 12/M04 A3026 RMK A01 T01181041  RH  033%=      5-min Rain = 0
KLES 192345Z 36005KT 12/M04 A3026 RMK A01 T01171041  RH  033%=      5-min Rain = 0
KLES 192350Z 00005KT 11/M04 A3026 RMK A01 T01141039  RH  034%=      5-min Rain = 0
KLES 192355Z 01004KT 11/M04 A3026 RMK A01 T01111037  RH  035%=      5-min Rain = 0
KLES 200000Z 01004KT 11/M04 A3026 RMK A01 T01081037  RH  036%=      5-min Rain = 0
KLES 200005Z 01004KT 10/M04 A3026 RMK A01 T01041037  RH  037%=      5-min Rain = 0
KLES 200010Z 01004KT 10/M04 A3026 RMK A01 T01001036  RH  038%=      5-min Rain = 0
KLES 200015Z 02004KT 10/M04 A3026 RMK A01 T00961036  RH  040%=      5-min Rain = 0
KLES 200020Z 03003KT 09/M04 A3026 RMK A01 T00921036  RH  040%=      5-min Rain = 0
KLES 200025Z 04002KT 09/M04 A3026 RMK A01 T00861036  RH  042%=      5-min Rain = 0
KLES 200030Z 04003KT 08/M04 A3026 RMK A01 T00811036  RH  044%=      5-min Rain = 0
KLES 200035Z 03003KT 08/M04 A3027 RMK A01 T00781037  RH  044%=      5-min Rain = 0
KLES 200040Z 03004KT 08/M04 A3027 RMK A01 T00761036  RH  045%=      5-min Rain = 0
KLES 200045Z 03005KT 07/M04 A3027 RMK A01 T00741035  RH  046%=      5-min Rain = 0
KLES 200050Z 03004KT 07/M04 A3027 RMK A01 T00731035  RH  047%=      5-min Rain = 0
KLES 200055Z 05004KT 07/M04 A3027 RMK A01 T00701036  RH  047%=      5-min Rain = 0
KLES 200100Z 05004KT 07/M04 A3027 RMK A01 T00671036  RH  048%=      5-min Rain = 0
KLES 200105Z 05004KT 07/M04 A3027 RMK A01 T00651037  RH  048%=      5-min Rain = 0
KLES 200110Z 05004KT 07/M04 A3027 RMK A01 T00651037  RH  048%=      5-min Rain = 0
KLES 200115Z 05005KT 07/M04 A3027 RMK A01 T00661038  RH  048%=      5-min Rain = 0
KLES 200120Z 05005KT 06/M04 A3027 RMK A01 T00641038  RH  048%=      5-min Rain = 0
KLES 200125Z 05004KT 06/M04 A3027 RMK A01 T00611038  RH  049%=      5-min Rain = 0
KLES 200130Z 05004KT 06/M04 A3027 RMK A01 T00591038  RH  050%=      5-min Rain = 0
KLES 200135Z 05004KT 06/M04 A3027 RMK A01 T00581038  RH  050%=      5-min Rain = 0
KLES 200140Z 05004KT 06/M04 A3028 RMK A01 T00591038  RH  050%=      5-min Rain = 0
KLES 200145Z 05005KT 06/M04 A3027 RMK A01 T00611038  RH  049%=      5-min Rain = 0
KLES 200150Z 05005KT 06/M04 A3027 RMK A01 T00601038  RH  049%=      5-min Rain = 0
KLES 200155Z 06005KT 06/M04 A3028 RMK A01 T00581038  RH  050%=      5-min Rain = 0
KLES 200200Z 06005KT 06/M04 A3028 RMK A01 T00551038  RH  051%=      5-min Rain = 0
KLES 200205Z 07004KT 05/M04 A3028 RMK A01 T00521038  RH  052%=      5-min Rain = 0
KLES 200210Z 08003KT 05/M04 A3027 RMK A01 T00481038  RH  054%=      5-min Rain = 0
KLES 200215Z 09003KT 04/M04 A3027 RMK A01 T00421040  RH  055%=      5-min Rain = 0
KLES 200220Z 09003KT 03/M04 A3027 RMK A01 T00341042  RH  058%=      5-min Rain = 0
KLES 200225Z 09003KT 03/M04 A3027 RMK A01 T00291041  RH  060%=      5-min Rain = 0
KLES 200230Z 08002KT 03/M04 A3027 RMK A01 T00271039  RH  062%=      5-min Rain = 0
KLES 200235Z 12002KT 03/M04 A3027 RMK A01 T00291035  RH  063%=      5-min Rain = 0
KLES 200240Z 13003KT 03/M04 A3028 RMK A01 T00321035  RH  062%=      5-min Rain = 0
KLES 200245Z 09003KT 03/M04 A3028 RMK A01 T00321036  RH  061%=      5-min Rain = 0
KLES 200250Z 08003KT 04/M04 A3028 RMK A01 T00381036  RH  059%=      5-min Rain = 0
KLES 200255Z 09002KT 04/M04 A3029 RMK A01 T00361039  RH  058%=      5-min Rain = 0
KLES 200300Z 10003KT 03/M04 A3029 RMK A01 T00331038  RH  060%=      5-min Rain = 0
KLES 200305Z 08003KT 04/M04 A303 RMK A01 T00381036  RH  059%=      5-min Rain = 0
KLES 200310Z 07003KT 04/M04 A303 RMK A01 T00421037  RH  057%=      5-min Rain = 0
KLES 200315Z 07002KT 04/M04 A303 RMK A01 T00411038  RH  057%=      5-min Rain = 0
KLES 200320Z 06001KT 04/M04 A303 RMK A01 T00391039  RH  057%=      5-min Rain = 0
KLES 200325Z 06001KT 04/M04 A3031 RMK A01 T00361041  RH  057%=      5-min Rain = 0
KLES 200330Z 08002KT 03/M04 A303 RMK A01 T00331041  RH  058%=      5-min Rain = 0
KLES 200335Z 10003KT 03/M04 A303 RMK A01 T00301040  RH  060%=      5-min Rain = 0
KLES 200340Z 10003KT 03/M04 A303 RMK A01 T00271040  RH  061%=      5-min Rain = 0
KLES 200345Z 10002KT 02/M04 A303 RMK A01 T00241041  RH  062%=      5-min Rain = 0
KLES 200350Z 11003KT 02/M04 A3029 RMK A01 T00221040  RH  064%=      5-min Rain = 0
KLES 200355Z 11003KT 02/M04 A3029 RMK A01 T00211040  RH  065%=      5-min Rain = 0
KLES 200400Z 12004KT 02/M04 A3028 RMK A01 T00171041  RH  066%=      5-min Rain = 0
KLES 200405Z 12004KT 01/M04 A3029 RMK A01 T00141042  RH  067%=      5-min Rain = 0
KLES 200410Z 11003KT 01/M04 A3029 RMK A01 T00121042  RH  068%=      5-min Rain = 0
KLES 200415Z 12003KT 01/M04 A3029 RMK A01 T00121041  RH  068%=      5-min Rain = 0
KLES 200420Z 13004KT 01/M04 A3028 RMK A01 T00121040  RH  069%=      5-min Rain = 0
KLES 200425Z 13004KT 01/M04 A3028 RMK A01 T00111041  RH  069%=      5-min Rain = 0
KLES 200430Z 12003KT 01/M04 A3029 RMK A01 T00111041  RH  068%=      5-min Rain = 0
KLES 200435Z 13004KT 01/M04 A3029 RMK A01 T00091043  RH  068%=      5-min Rain = 0
KLES 200440Z 12005KT 01/M04 A3029 RMK A01 T00071042  RH  070%=      5-min Rain = 0
KLES 200445Z 12004KT 01/M04 A3029 RMK A01 T00091042  RH  069%=      5-min Rain = 0
KLES 200450Z 11005KT 01/M04 A3029 RMK A01 T00081043  RH  069%=      5-min Rain = 0
KLES 200455Z 12005KT 01/M05 A303 RMK A01 T00051045  RH  069%=      5-min Rain = 0
KLES 200500Z 12005KT 01/M04 A303 RMK A01 T00051044  RH  070%=      5-min Rain = 0
KLES 200505Z 12004KT 01/M04 A303 RMK A01 T00071043  RH  070%=      5-min Rain = 0
KLES 200510Z 13005KT 01/M04 A3031 RMK A01 T00091042  RH  069%=      5-min Rain = 0
KLES 200515Z 13006KT 01/M04 A303 RMK A01 T00081042  RH  069%=      5-min Rain = 0
KLES 200520Z 15006KT 01/M04 A3031 RMK A01 T00091040  RH  070%=      5-min Rain = 0
KLES 200525Z 13006KT 01/M04 A303 RMK A01 T00121038  RH  069%=      5-min Rain = 0
KLES 200530Z 12005KT 01/M04 A303 RMK A01 T00101043  RH  068%=      5-min Rain = 0
KLES 200535Z 12005KT 00/M05 A3031 RMK A01 T00041045  RH  070%=      5-min Rain = 0
KLES 200540Z 12005KT 00/M05 A3031 RMK A01 T00011045  RH  072%=      5-min Rain = 0
KLES 200545Z 12006KT 00/M05 A3031 RMK A01 T00011045  RH  072%=      5-min Rain = 0
KLES 200550Z 12005KT 00/M05 A303 RMK A01 T00011045  RH  072%=      5-min Rain = 0
KLES 200555Z 13005KT 00/05 A303 RMK A01 T00000-45  RH  072%=      5-min Rain = 0

Page generated in 0.0332 seconds.